Aeroporto :
LOGIN :

Iscrizione | Disclaimer

   EN    FR    IT 

 










Sommario :    VFR   VFR Marginale   IFR   IFR Intensivo   IFR Molto Intensivo
Visibilità : 
Base nubi : 
>= 8 km
>= 3000ft
5 / 8 km
1000 / 3000 ft
1500m / 5 km
500 / 1000 ft
800 / 1500m
200 / 500 ft
< 800m
< 200 ft
Simboli :   Temporali  Nebbia  Neve Forte  Precipitazioni Forti  Vento > 20 kt
SIGMETs :   Varie  Temporali  Ghiacco  Turbolenza  Onda orograficha  Ceneri Vulcaniche







- Altitudine del aeroporto : 1115 ft
- Codice IATA : GRZ


LOWG - Graz

ULTIMO METAR :
  • 232320Z AUTO VRB01KT 3400 -DZ BR FEW002 BKN006 10/09 Q1012

METARs OBSOLETI :
  • 232250Z AUTO VRB01KT 3000 DZ BR FEW004 BKN006 10/09 Q1012
  • 232220Z AUTO VRB01KT 3400 -SHRA BR FEW003 BKN005 10/09 Q1012
  • 232150Z 00000KT 4000 -RA BR FEW005 BKN007 10/09 Q1012 TEMPO BKN005
  • 232120Z 00000KT 4000 -RA BR FEW005 BKN007 10/09 Q1012 TEMPO BKN005
  • 232050Z VRB01KT 4000 -RA BR FEW005 BKN008 10/09 Q1012 TEMPO -RA

TAF TAF LOWG
Valido dal 24 a 00 ore il 25 a 00 ore UTC


232315Z 2400/2424 VRB02KT 6000 SCT005 BKN015 TX21/2414Z TN10/2404Z
TEMPO 2400/2406 2500 -RA BR SCT003 BKN005
PROB30
TEMPO 2402/2405 0500 BCFG BKN002
BECMG 2407/2410 16008KT 9999 FEW030 SCT050
PROB30
TEMPO 2410/2414 -SHRA FEW045TCU SCT050
BECMG 2416/2418 VRB02KT CAVOK
Nessun NOTAM noto per questo aeroporto.



MetMap, La meteo Aeronautica in un colpo d'occhio ! - Copyright ORBIFLY Dicembre 2007 - Disclaimer

ORBIFLY MET'MAP TEAM :

Programmazione e sviluppo : Alexandra Zaïnal
Concezione e sviluppo : Baudouin d'Aumeries
Co-Programmazione e sviluppo : Marc-Olivier Méhu
Supporto tecnico e logistico : Manuel Goepfert
Aiuto per la traduzione : Arnaldo La Scala

Contatto : metmap@orbifly.com




FONTI E CREDITI :

   NOAA